Time;durP1;ratioP1;P1;durP2;ratioP2;P2;SDS_P1;SDS_P2;PMS_P1;PMS_P2;Temp;Humidity;BMP_temperature;BMP_pressure;BME280_temperature;BME280_humidity;BME280_pressure;Samples;Min_cycle;Max_cycle;Signal;HPM_P1;HPM_P2
2023/06/21 05:00:30;;;;;;;;;5.00;5.00;;;;;22.68;73.78;-19811.53;5965998;23;45221;-89
2023/06/21 05:02:56;;;;;;;;;5.33;5.33;;;;;22.33;73.44;-19802.34;5176218;22;45779;-88
2023/06/21 05:05:21;;;;;;;;;5.00;5.00;;;;;22.64;73.85;-19810.47;4912808;28;45406;-90
2023/06/21 05:07:46;;;;;;;;;5.00;5.00;;;;;22.70;73.92;-19812.06;5190177;23;46299;-89
2023/06/21 05:13:05;;;;;;;;;42.00;32.67;;;;;22.92;74.38;-19817.63;4943367;22;45488;-85
2023/06/21 05:15:30;;;;;;;;;6.33;6.33;;;;;22.27;74.23;-19800.88;5163185;23;45492;-86
2023/06/21 05:17:55;;;;;;;;;6.33;6.00;;;;;22.07;74.11;-19795.69;4909173;28;45511;-87
2023/06/21 05:22:51;;;;;;;;;8.00;7.67;;;;;22.51;74.42;-19807.00;5504469;23;67863;-86
2023/06/21 05:25:30;;;;;;;;;7.00;7.00;;;;;21.83;74.23;-19789.31;4942061;22;45714;-87
2023/06/21 05:28:20;;;;;;;;;7.33;6.33;;;;;22.95;74.69;-19818.56;4898067;28;46354;-93
2023/06/21 05:44:19;;;;;;;;;12.33;12.33;;;;;22.28;74.89;-19801.03;5038045;23;67749;-86
2023/06/21 06:09:08;;;;;;;;;7.00;7.00;;;;;23.19;74.23;-19824.69;5101776;22;46905;-85
2023/06/21 06:11:34;;;;;;;;;8.33;7.33;;;;;23.35;74.05;-19828.94;4935038;22;46592;-84
2023/06/21 06:14:02;;;;;;;;;212.00;180.33;;;;;22.99;73.83;-19819.50;4925643;28;45369;-83
2023/06/21 06:16:28;;;;;;;;;49.00;40.67;;;;;23.07;73.79;-19821.50;4929161;28;45713;-84
2023/06/21 06:18:53;;;;;;;;;10.67;10.33;;;;;23.55;73.18;-19833.97;4944990;23;45475;-84
2023/06/21 06:21:22;;;;;;;;;6.33;6.33;;;;;23.75;73.54;-19839.16;4906493;28;48123;-84
2023/06/21 06:40:08;;;;;;;;;6.33;6.33;;;;;24.16;71.27;-19849.91;5001978;28;45614;-84
2023/06/21 06:44:58;;;;;;;;;9.00;7.33;;;;;23.66;70.46;-19836.75;5240779;22;71763;-85
2023/06/21 06:47:23;;;;;;;;;7.67;7.67;;;;;23.77;70.66;-19839.81;4930871;28;45620;-84
2023/06/21 06:52:44;;;;;;;;;8.00;6.67;;;;;24.34;70.20;-19854.53;5173681;23;45541;-84
2023/06/21 07:07:28;;;;;;;;;6.00;5.00;;;;;24.46;68.22;-19857.44;5783644;23;45514;-86
2023/06/21 07:13:23;;;;;;;;;5.00;5.00;;;;;24.64;67.47;-19862.22;4854853;28;45520;-84
2023/06/21 07:15:50;;;;;;;;;6.00;5.33;;;;;24.49;67.09;-19858.38;4909704;28;46473;-85
2023/06/21 07:19:15;;;;;;;;;7.00;5.33;;;;;24.05;66.71;-19846.84;4859366;28;45509;-86
2023/06/21 07:21:47;;;;;;;;;5.00;5.00;;;;;24.57;66.54;-19860.38;4873893;28;45446;-85
2023/06/21 07:24:13;;;;;;;;;5.33;4.00;;;;;25.25;66.17;-19878.00;4911476;28;45528;-85
2023/06/21 07:26:39;;;;;;;;;3.00;3.00;;;;;25.20;65.64;-19876.69;4846930;28;45448;-85
2023/06/21 07:29:07;;;;;;;;;6.33;3.33;;;;;25.32;64.76;-19879.84;4857002;28;45565;-84
2023/06/21 07:31:33;;;;;;;;;5.00;5.00;;;;;24.55;64.73;-19859.84;4869881;28;45693;-85
2023/06/21 07:33:58;;;;;;;;;5.33;5.33;;;;;25.08;64.39;-19873.50;4865326;28;45528;-85
2023/06/21 07:36:25;;;;;;;;;4.25;4.25;;;;;25.40;63.67;-19881.84;4894785;28;45569;-84
2023/06/21 07:38:53;;;;;;;;;3.50;3.50;;;;;25.00;64.01;-19871.63;4867445;29;45560;-85
2023/06/21 07:46:32;;;;;;;;;5.00;5.00;;;;;24.87;61.92;-19868.06;5087087;22;45830;-85
2023/06/21 07:49:07;;;;;;;;;5.33;4.00;;;;;24.85;61.52;-19867.66;4879458;28;45508;-85
2023/06/21 07:51:32;;;;;;;;;3.67;2.33;;;;;25.86;62.23;-19893.88;4897196;28;45545;-85
2023/06/21 07:53:57;;;;;;;;;1.67;1.67;;;;;26.03;61.67;-19898.13;4896343;29;45597;-84
2023/06/21 07:56:32;;;;;;;;;3.00;3.00;;;;;25.07;60.35;-19873.34;4879411;28;47118;-85
2023/06/21 07:58:57;;;;;;;;;5.00;3.75;;;;;25.83;60.94;-19893.09;4897733;28;45468;-85
2023/06/21 08:01:23;;;;;;;;;5.00;5.00;;;;;25.56;61.46;-19886.06;4898432;28;45463;-84
2023/06/21 08:03:51;;;;;;;;;6.00;3.00;;;;;25.79;60.08;-19891.91;4880049;28;45547;-85
2023/06/21 08:06:17;;;;;;;;;5.50;3.50;;;;;26.01;60.45;-19897.72;4895672;28;47382;-86
2023/06/21 08:09:26;;;;;;;;;3.33;3.33;;;;;26.44;60.23;-19908.84;4889350;28;45454;-85
2023/06/21 08:11:55;;;;;;;;;5.00;4.00;;;;;25.52;60.02;-19885.03;4896360;28;45631;-84
2023/06/21 08:14:20;;;;;;;;;4.67;4.67;;;;;26.60;59.68;-19912.78;4895833;29;45435;-83
2023/06/21 08:16:52;;;;;;;;;2.33;2.33;;;;;25.70;59.28;-19889.78;4880131;28;47901;-83
2023/06/21 08:19:38;;;;;;;;;4.00;4.00;;;;;26.71;59.32;-19915.84;4895510;28;45543;-84
2023/06/21 08:25:25;;;;;;;;;4.00;4.00;;;;;26.35;58.34;-19906.31;4937778;23;45577;-86
2023/06/21 08:28:19;;;;;;;;;5.25;4.00;;;;;26.42;58.90;-19908.16;4915821;28;47492;-85
2023/06/21 08:33:55;;;;;;;;;3.75;3.75;;;;;26.21;57.07;-19902.88;4907516;23;45525;-84
2023/06/21 08:36:29;;;;;;;;;5.00;3.50;;;;;26.96;57.78;-19922.19;4919816;28;45692;-85
2023/06/21 08:39:13;;;;;;;;;5.33;5.33;;;;;27.04;58.00;-19924.28;4929072;28;45481;-85
2023/06/21 08:41:57;;;;;;;;;4.00;4.00;;;;;26.41;57.70;-19908.03;4901677;28;46129;-85
2023/06/21 08:44:32;;;;;;;;;6.00;4.67;;;;;27.04;58.27;-19924.28;4964354;28;45871;-85
2023/06/21 08:47:00;;;;;;;;;8.67;8.67;;;;;27.47;57.65;-19935.38;4916675;28;46796;-85
2023/06/21 08:49:27;;;;;;;;;3.00;3.00;;;;;27.49;56.18;-19935.78;4915171;28;47187;-85
2023/06/21 08:55:29;;;;;;;;;3.00;3.00;;;;;28.91;53.37;-19972.44;4917907;28;45557;-85
2023/06/21 08:57:56;;;;;;;;;1.00;1.00;;;;;29.61;52.45;-19990.34;4927114;28;45781;-84
2023/06/21 09:04:01;;;;;;;;;4.25;3.00;;;;;28.53;52.90;-19962.56;4916043;28;45553;-85
2023/06/21 09:06:53;;;;;;;;;6.25;4.75;;;;;28.50;53.04;-19961.91;4911387;28;45459;-84
2023/06/21 09:14:35;;;;;;;;;3.75;3.75;;;;;29.09;52.14;-19976.94;4925369;23;45582;-84
2023/06/21 09:22:24;;;;;;;;;5.00;4.00;;;;;29.15;51.82;-19978.66;5150090;23;45623;-84
2023/06/21 09:24:50;;;;;;;;;3.00;2.00;;;;;28.68;50.80;-19966.38;4980718;28;45453;-84
2023/06/21 09:27:16;;;;;;;;;4.75;4.00;;;;;29.38;50.69;-19984.56;5033833;28;45571;-83
2023/06/21 09:29:51;;;;;;;;;4.67;4.33;;;;;28.26;50.72;-19955.72;5025713;28;45486;-84
2023/06/21 09:32:19;;;;;;;;;5.75;4.25;;;;;28.16;51.75;-19953.19;5016370;28;45561;-84
2023/06/21 09:34:53;;;;;;;;;5.33;5.33;;;;;28.04;51.25;-19949.91;5015444;28;45544;-84
2023/06/21 09:37:36;;;;;;;;;5.00;5.00;;;;;28.33;51.59;-19957.56;5017100;28;45574;-84
2023/06/21 09:40:09;;;;;;;;;4.67;4.00;;;;;29.15;51.03;-19978.50;5016601;28;45448;-84
2023/06/21 09:42:43;;;;;;;;;8.33;7.00;;;;;29.36;51.23;-19983.91;5012088;28;45500;-84
2023/06/21 09:48:14;;;;;;;;;4.00;4.00;;;;;29.02;51.00;-19975.22;5003293;28;45499;-84
2023/06/21 09:50:44;;;;;;;;;4.33;3.00;;;;;29.14;51.15;-19978.25;5004418;28;45674;-84
2023/06/21 09:53:11;;;;;;;;;5.33;4.00;;;;;30.46;49.94;-20012.19;5013111;28;45700;-84
2023/06/21 09:55:36;;;;;;;;;4.25;4.25;;;;;30.44;48.19;-20011.66;5008768;28;45432;-84
2023/06/21 09:58:38;;;;;;;;;5.00;5.00;;;;;31.21;45.98;-20029.38;5007292;28;45420;-86
2023/06/21 10:01:07;;;;;;;;;3.75;3.75;;;;;32.24;45.39;-19713.47;4915364;28;45422;-84
2023/06/21 10:04:08;;;;;;;;;4.00;4.00;;;;;32.76;43.82;-19041.06;4917815;28;45858;-84
2023/06/21 10:06:36;;;;;;;;;5.75;4.75;;;;;34.02;40.09;-15635.25;4959315;28;45477;-85
2023/06/21 10:09:07;;;;;;;;;4.00;4.00;;;;;35.34;38.98;-11868.72;4969684;28;45500;-85
2023/06/21 10:11:49;;;;;;;;;4.00;4.00;;;;;35.37;38.88;-9799.66;4969569;28;45649;-85
2023/06/21 10:14:29;;;;;;;;;6.00;4.00;;;;;35.90;38.36;-6350.19;4967964;28;47323;-85
2023/06/21 10:16:56;;;;;;;;;4.00;4.00;;;;;36.53;37.30;-4968.66;4971561;28;45508;-85
2023/06/21 10:30:20;;;;;;;;;3.67;3.00;;;;;38.17;34.01;14855.31;5508519;23;45598;-87
2023/06/21 10:36:24;;;;;;;;;3.67;2.00;;;;;37.54;34.06;26435.34;4896048;28;45594;-85
2023/06/21 11:10:42;;;;;;;;;3.00;3.00;;;;;37.78;30.51;50009.25;5076847;22;47090;-88
2023/06/21 11:44:18;;;;;;;;;3.67;3.67;;;;;35.64;32.45;58640.91;5536887;22;71907;-93
2023/06/21 12:14:16;;;;;;;;;4.00;4.00;;;;;35.05;33.32;58610.44;4929815;28;45495;-84
2023/06/21 12:16:42;;;;;;;;;3.67;3.67;;;;;34.62;33.65;58439.91;4920361;28;45457;-84
2023/06/21 12:19:10;;;;;;;;;4.00;4.00;;;;;35.00;33.26;58893.25;4901337;28;45549;-84
2023/06/21 12:21:51;;;;;;;;;5.67;4.67;;;;;33.95;32.87;59241.81;4940515;28;45831;-85
2023/06/21 12:26:57;;;;;;;;;4.33;4.33;;;;;34.20;34.12;59028.00;5238681;22;46991;-84
2023/06/21 12:29:23;;;;;;;;;5.00;5.00;;;;;33.50;33.97;59111.72;4918480;28;47172;-85
2023/06/21 12:34:25;;;;;;;;;4.00;4.00;;;;;33.33;33.12;60036.28;5027248;23;46627;-85
2023/06/21 13:00:53;;;;;;;;;7.00;5.33;;;;;34.01;34.21;59411.66;5009557;22;45758;-89
2023/06/21 13:06:51;;;;;;;;;3.00;3.00;;;;;33.32;33.28;59763.97;5560241;22;45856;-88
2023/06/21 13:13:09;;;;;;;;;7.33;5.67;;;;;34.12;34.66;59348.97;5079802;22;45961;-93
2023/06/21 13:15:38;;;;;;;;;4.00;4.00;;;;;32.99;33.90;59528.81;4928661;28;45474;-95
2023/06/21 13:18:03;;;;;;;;;3.67;3.67;;;;;33.63;33.80;59757.00;4921411;28;45408;-95
2023/06/21 13:20:35;;;;;;;;;6.33;4.33;;;;;33.04;33.21;59968.66;4914221;28;45471;-96
2023/06/21 13:23:18;;;;;;;;;6.67;6.67;;;;;33.05;33.25;60081.75;4924777;28;48021;-93
2023/06/21 13:25:44;;;;;;;;;3.75;3.75;;;;;33.38;32.41;60604.47;4923721;28;45440;-93
2023/06/21 13:28:09;;;;;;;;;4.00;4.00;;;;;33.57;32.46;61001.94;4920273;28;45494;-95
2023/06/21 13:30:35;;;;;;;;;2.75;2.75;;;;;33.32;32.19;60942.91;4936203;28;45525;-96
2023/06/21 13:36:31;;;;;;;;;5.75;4.50;;;;;32.54;33.68;61030.16;4928144;28;45647;-91
2023/06/21 13:41:32;;;;;;;;;4.50;3.00;;;;;33.06;33.93;60610.53;5923327;22;46304;-93
2023/06/21 13:43:57;;;;;;;;;5.75;4.25;;;;;33.37;33.29;60841.97;4901515;28;47740;-95
2023/06/21 14:00:42;;;;;;;;;5.33;5.33;;;;;33.15;34.28;61100.72;4904293;23;68014;-94
2023/06/21 14:03:05;;;;;;;;;4.33;4.33;;;;;32.09;33.71;61142.94;4972977;28;45373;-95
2023/06/21 14:05:31;;;;;;;;;4.00;4.00;;;;;32.33;34.24;61497.66;4894872;28;47153;-95
2023/06/21 14:07:56;;;;;;;;;5.75;4.00;;;;;32.62;33.82;61710.91;4899367;28;45463;-96
2023/06/21 14:10:22;;;;;;;;;4.25;4.25;;;;;31.91;33.33;61626.38;4888904;28;45366;-94
2023/06/21 14:12:47;;;;;;;;;4.00;4.00;;;;;31.84;33.29;62050.31;4905703;28;45700;-93
2023/06/21 14:15:13;;;;;;;;;6.33;5.00;;;;;32.15;33.54;61979.56;4895798;28;47107;-94
2023/06/21 14:17:50;;;;;;;;;20.67;20.67;;;;;32.45;34.24;61936.06;4880118;29;46095;-96
2023/06/21 14:20:16;;;;;;;;;6.00;4.00;;;;;32.36;34.39;61804.09;4863475;29;45513;-95
2023/06/21 14:22:41;;;;;;;;;5.00;5.00;;;;;32.36;33.77;62055.47;4900753;28;45367;-95
2023/06/21 14:25:11;;;;;;;;;6.00;5.00;;;;;31.69;33.48;62163.69;4916149;28;47195;-96
2023/06/21 14:27:37;;;;;;;;;4.75;4.75;;;;;32.00;34.19;62020.94;4883428;28;45691;-95
2023/06/21 14:30:04;;;;;;;;;4.00;4.00;;;;;32.31;34.00;62137.56;4879512;28;45206;-95
2023/06/21 14:32:33;;;;;;;;;8.33;5.33;;;;;32.31;34.09;62353.44;4899973;28;45681;-95
2023/06/21 14:34:59;;;;;;;;;4.67;4.33;;;;;32.13;34.17;62340.72;4916867;28;48074;-95
2023/06/21 14:37:28;;;;;;;;;5.00;5.00;;;;;31.94;33.94;62331.84;4885008;28;45448;-96
2023/06/21 14:39:54;;;;;;;;;6.00;5.00;;;;;31.34;33.96;62266.56;4874502;28;45495;-95
2023/06/21 14:42:20;;;;;;;;;4.67;4.67;;;;;31.57;34.27;62085.41;4895223;29;45417;-94
2023/06/21 14:44:45;;;;;;;;;5.00;5.00;;;;;32.09;34.45;62322.78;4880072;29;47213;-94
2023/06/21 14:47:11;;;;;;;;;3.67;3.00;;;;;31.99;34.62;62336.69;4884545;29;45929;-94
2023/06/21 14:49:37;;;;;;;;;5.00;5.00;;;;;32.30;34.15;62335.97;4897405;28;45463;-95
2023/06/21 14:52:03;;;;;;;;;4.33;4.33;;;;;31.04;34.94;61784.56;4894315;29;45493;-95
2023/06/21 14:54:28;;;;;;;;;5.33;4.00;;;;;31.59;34.16;62360.47;4888384;28;47017;-95
2023/06/21 14:56:54;;;;;;;;;6.67;5.00;;;;;32.09;34.38;62492.16;4889375;28;45426;-96
2023/06/21 14:59:22;;;;;;;;;7.00;7.00;;;;;31.68;34.75;62486.94;4918806;28;45603;-96
2023/06/21 15:01:47;;;;;;;;;4.00;4.00;;;;;31.36;34.38;62598.31;4928854;28;45366;-94
2023/06/21 15:04:12;;;;;;;;;6.00;6.00;;;;;31.52;34.96;62590.94;4920884;28;48330;-94
2023/06/21 15:06:38;;;;;;;;;6.00;5.00;;;;;31.35;34.64;62649.06;4926649;28;45491;-95
2023/06/21 15:09:03;;;;;;;;;11.00;7.00;;;;;31.13;35.70;62323.75;5276642;23;45790;-94
2023/06/21 15:11:29;;;;;;;;;8.00;7.00;;;;;31.36;36.02;61973.50;4916645;28;45523;-94
2023/06/21 15:13:55;;;;;;;;;8.00;6.00;;;;;31.33;36.04;62082.72;4899676;28;45919;-95
2023/06/21 15:16:21;;;;;;;;;7.00;7.00;;;;;31.30;36.10;61948.03;4900255;29;45325;-94
2023/06/21 15:18:47;;;;;;;;;7.00;5.67;;;;;30.87;36.41;61693.47;4884837;29;45342;-94
2023/06/21 15:21:12;;;;;;;;;5.67;5.67;;;;;31.42;36.50;61788.94;4877607;28;45785;-94
2023/06/21 15:23:37;;;;;;;;;7.00;7.00;;;;;30.58;36.96;61428.94;4884773;29;47000;-94
2023/06/21 15:26:03;;;;;;;;;6.50;6.50;;;;;30.96;36.82;61694.31;4901739;28;45655;-95
2023/06/21 15:28:29;;;;;;;;;7.00;6.00;;;;;31.03;36.31;61620.44;4883901;29;45557;-95
2023/06/21 15:30:57;;;;;;;;;8.00;6.00;;;;;31.62;37.60;61110.50;4916313;28;45600;-94
2023/06/21 15:33:23;;;;;;;;;6.67;6.67;;;;;30.98;36.59;61317.50;4910624;28;45435;-94
2023/06/21 15:35:48;;;;;;;;;6.00;6.00;;;;;31.63;36.69;61327.13;4913316;28;45352;-95
2023/06/21 15:38:13;;;;;;;;;6.67;6.67;;;;;31.43;36.06;61451.69;4892304;28;45413;-95
2023/06/21 15:40:39;;;;;;;;;5.00;3.67;;;;;31.23;36.18;61264.72;4887085;29;45420;-95
2023/06/21 15:43:04;;;;;;;;;7.33;6.00;;;;;30.70;36.91;61090.13;4904224;29;45400;-95
2023/06/21 15:45:30;;;;;;;;;9.33;8.00;;;;;30.66;37.69;60587.88;4885214;28;45420;-94
2023/06/21 15:47:55;;;;;;;;;7.33;7.33;;;;;31.57;37.97;60317.31;4885841;28;45559;-94
2023/06/21 15:50:20;;;;;;;;;6.33;6.33;;;;;31.44;38.23;60039.81;4886906;28;45400;-94
2023/06/21 15:52:46;;;;;;;;;6.00;6.00;;;;;31.39;38.34;59878.69;4885067;28;46832;-95
2023/06/21 15:55:11;;;;;;;;;7.67;6.67;;;;;31.13;38.79;59618.53;4900508;28;45348;-94
2023/06/21 15:57:37;;;;;;;;;7.67;5.67;;;;;31.52;38.50;59480.28;4899383;28;45684;-95
2023/06/21 16:00:03;;;;;;;;;6.00;6.00;;;;;31.29;38.95;59405.97;4884952;28;45618;-96
2023/06/21 16:02:28;;;;;;;;;8.33;5.33;;;;;31.47;39.28;59216.63;4883827;28;47204;-94
2023/06/21 16:04:54;;;;;;;;;7.67;7.00;;;;;31.25;38.84;59382.78;4884540;28;45437;-94
2023/06/21 16:07:20;;;;;;;;;8.00;7.00;;;;;31.30;39.22;59183.47;4898690;29;45495;-94
2023/06/21 16:09:46;;;;;;;;;5.67;5.67;;;;;31.09;39.17;59085.75;4900195;29;45509;-95
2023/06/21 16:12:11;;;;;;;;;5.00;5.00;;;;;31.37;39.84;58603.94;4903434;28;47506;-94
2023/06/21 16:14:37;;;;;;;;;5.00;5.00;;;;;31.01;39.80;58113.72;4903832;28;45395;-94
2023/06/21 16:17:03;;;;;;;;;5.00;4.33;;;;;31.00;39.80;58213.00;4892849;28;45415;-94
2023/06/21 16:19:28;;;;;;;;;6.00;6.00;;;;;30.63;39.74;58187.78;4881687;28;45785;-94
2023/06/21 16:21:54;;;;;;;;;5.33;5.33;;;;;31.15;40.03;57922.41;4905763;28;47258;-94
2023/06/21 16:24:19;;;;;;;;;4.33;4.33;;;;;30.28;40.05;57879.38;4892787;28;45459;-95
2023/06/21 16:26:46;;;;;;;;;6.33;6.33;;;;;30.58;39.64;57804.91;4973343;28;45994;-94
2023/06/21 16:29:12;;;;;;;;;6.00;6.00;;;;;30.12;39.59;58053.31;4973261;28;45495;-96
2023/06/21 16:31:37;;;;;;;;;6.00;5.33;;;;;30.24;40.26;57785.59;4882857;29;47457;-94
2023/06/21 16:34:04;;;;;;;;;7.33;6.00;;;;;30.46;40.42;57600.22;4948057;28;45326;-93
2023/06/21 16:36:29;;;;;;;;;5.33;4.33;;;;;30.79;40.79;57506.75;4881015;29;45336;-94
2023/06/21 16:38:55;;;;;;;;;7.00;5.67;;;;;30.11;40.68;57628.50;4881102;29;45384;-94
2023/06/21 16:41:20;;;;;;;;;5.33;5.33;;;;;30.02;40.87;57143.69;4880970;28;48485;-95
2023/06/21 16:43:45;;;;;;;;;6.67;5.67;;;;;30.00;39.86;57283.09;4964529;28;45501;-94
2023/06/21 16:46:11;;;;;;;;;5.67;5.67;;;;;30.99;40.70;56954.22;4908127;28;45352;-94
2023/06/21 16:48:36;;;;;;;;;7.00;7.00;;;;;30.66;41.32;56275.06;4883689;28;45476;-95
2023/06/21 16:51:02;;;;;;;;;5.33;5.33;;;;;30.59;40.82;56629.66;4888820;28;47179;-94
2023/06/21 16:53:27;;;;;;;;;6.00;6.00;;;;;30.66;40.37;56350.75;4873613;28;45716;-94
2023/06/21 16:55:53;;;;;;;;;4.67;4.33;;;;;30.27;40.60;56553.63;4876504;28;45446;-95
2023/06/21 16:58:18;;;;;;;;;6.00;6.00;;;;;30.27;40.39;56314.31;4883581;28;45488;-95
2023/06/21 17:00:43;;;;;;;;;6.67;6.33;;;;;30.38;40.65;56710.78;4892897;28;48252;-96
2023/06/21 17:03:09;;;;;;;;;6.00;6.00;;;;;30.32;40.40;56688.59;4907058;28;45484;-96
2023/06/21 17:05:34;;;;;;;;;5.00;5.00;;;;;30.56;40.71;56937.44;4866167;28;45326;-95
2023/06/21 17:08:01;;;;;;;;;5.00;5.00;;;;;30.41;40.27;57135.41;4874086;28;45394;-96
2023/06/21 17:10:26;;;;;;;;;6.00;5.67;;;;;30.41;40.33;56952.63;4950268;28;47104;-96
2023/06/21 17:12:52;;;;;;;;;7.33;6.00;;;;;29.71;40.35;57042.94;4980415;28;45964;-95
2023/06/21 17:15:17;;;;;;;;;7.00;6.00;;;;;30.38;40.67;56849.03;4980687;28;45585;-96
2023/06/21 17:17:43;;;;;;;;;4.67;4.67;;;;;30.68;40.97;56995.00;4979785;28;45490;-96
2023/06/21 17:20:09;;;;;;;;;6.00;6.00;;;;;30.64;40.13;57100.44;4987597;28;47487;-94
2023/06/21 17:22:35;;;;;;;;;6.00;6.00;;;;;29.66;40.33;57391.78;4961113;28;45364;-94
2023/06/21 17:25:02;;;;;;;;;4.33;4.33;;;;;30.03;40.41;57104.34;4969685;28;45421;-96
2023/06/21 17:27:30;;;;;;;;;4.00;4.00;;;;;29.69;40.65;57068.66;4983263;28;45397;-96
2023/06/21 17:29:55;;;;;;;;;7.67;6.00;;;;;30.66;40.43;56988.09;4995636;28;47021;-95
2023/06/21 17:32:21;;;;;;;;;5.33;4.33;;;;;30.65;40.33;57168.97;4994297;28;45712;-96
2023/06/21 17:34:46;;;;;;;;;5.00;5.00;;;;;29.84;40.96;56746.34;4979089;28;45540;-95
2023/06/21 17:37:11;;;;;;;;;4.33;4.33;;;;;30.27;40.99;56624.34;4995579;28;45711;-96
2023/06/21 17:39:37;;;;;;;;;6.00;6.00;;;;;30.27;40.91;56553.63;4978914;28;48438;-95
2023/06/21 17:42:04;;;;;;;;;4.67;4.67;;;;;29.98;41.37;56006.59;4996480;28;46173;-94
2023/06/21 17:44:30;;;;;;;;;5.00;5.00;;;;;30.22;41.65;55871.13;4966957;28;45457;-95
2023/06/21 17:46:55;;;;;;;;;3.50;3.25;;;;;29.52;41.67;55536.59;4960626;28;45631;-95
2023/06/21 17:49:21;;;;;;;;;4.00;3.00;;;;;30.09;41.94;55228.91;4959006;28;47293;-94
2023/06/21 17:51:46;;;;;;;;;5.25;5.25;;;;;30.16;41.62;55882.13;4976108;28;45809;-95
2023/06/21 17:54:12;;;;;;;;;5.00;5.00;;;;;30.09;41.34;55815.56;4968988;28;45582;-94
2023/06/21 17:56:37;;;;;;;;;4.67;4.67;;;;;29.86;41.48;55528.03;4980692;28;45386;-95
2023/06/21 17:59:03;;;;;;;;;5.33;3.33;;;;;30.27;41.33;55935.78;4978899;28;48069;-95
2023/06/21 18:01:30;;;;;;;;;5.67;4.67;;;;;29.57;41.99;55310.56;4978757;28;45344;-96
2023/06/21 18:03:55;;;;;;;;;3.00;3.00;;;;;29.91;41.89;55507.91;4978645;28;45355;-95
2023/06/21 18:06:22;;;;;;;;;3.33;3.33;;;;;30.17;41.04;55994.56;4978171;28;45648;-95
2023/06/21 18:08:47;;;;;;;;;1.33;1.33;;;;;29.75;41.76;56041.88;4973876;28;48089;-94
2023/06/21 18:11:12;;;;;;;;;3.00;3.00;;;;;29.42;41.82;56146.66;4883428;28;45423;-95
2023/06/21 18:13:38;;;;;;;;;2.00;2.00;;;;;29.80;41.91;56070.69;4883020;29;45321;-94
2023/06/21 18:16:03;;;;;;;;;3.33;2.33;;;;;29.76;41.42;55936.38;4884094;29;45700;-94
2023/06/21 18:18:29;;;;;;;;;2.67;2.00;;;;;29.81;41.52;55943.94;4882408;28;47093;-94
2023/06/21 18:20:54;;;;;;;;;4.00;3.67;;;;;29.62;41.99;55809.72;4887592;28;45325;-94
2023/06/21 18:23:19;;;;;;;;;3.50;3.50;;;;;29.09;41.70;56269.88;4884466;28;45779;-94
2023/06/21 18:25:45;;;;;;;;;6.67;2.67;;;;;29.22;41.07;56434.56;4901233;28;45336;-94
2023/06/21 18:28:10;;;;;;;;;6.00;4.50;;;;;29.52;41.26;56503.56;4884209;28;47894;-95
2023/06/21 18:30:36;;;;;;;;;4.00;4.00;;;;;29.36;41.19;56517.84;4872067;28;45361;-95
2023/06/21 18:33:01;;;;;;;;;3.00;3.00;;;;;29.22;41.42;56420.97;4864021;29;45283;-95
2023/06/21 18:35:27;;;;;;;;;3.00;3.00;;;;;29.50;41.71;56300.63;4865309;28;45347;-94
2023/06/21 18:37:52;;;;;;;;;4.00;4.00;;;;;29.32;41.51;56152.78;4866721;28;48295;-94
2023/06/21 18:40:22;;;;;;;;;5.00;4.00;;;;;28.68;42.32;56116.53;4882049;28;45434;-95
2023/06/21 18:42:59;;;;;;;;;13.33;12.33;;;;;29.65;42.02;55980.56;4879500;28;45396;-95
2023/06/21 18:45:25;;;;;;;;;5.67;4.00;;;;;29.12;42.21;55778.25;4932877;28;45648;-90
2023/06/21 18:47:50;;;;;;;;;7.00;7.00;;;;;29.50;42.57;55507.06;4902200;28;46172;-90
2023/06/21 18:50:16;;;;;;;;;6.00;5.00;;;;;29.44;42.82;55433.91;4905246;28;45460;-90
2023/06/21 18:52:42;;;;;;;;;4.33;4.33;;;;;29.46;43.30;54900.88;4904056;28;45424;-90
2023/06/21 18:55:09;;;;;;;;;7.00;6.00;;;;;29.32;43.07;54822.91;4903008;28;45428;-88
2023/06/21 18:57:34;;;;;;;;;4.00;4.00;;;;;29.46;43.07;54496.81;4899667;28;45545;-87
2023/06/21 19:00:00;;;;;;;;;5.33;5.33;;;;;29.41;43.35;54055.06;4913093;28;45419;-93
2023/06/21 19:02:25;;;;;;;;;5.33;5.33;;;;;29.15;43.24;54058.34;4881537;28;45532;-92
2023/06/21 19:04:52;;;;;;;;;7.33;7.33;;;;;29.16;43.20;54021.28;4894031;28;45432;-92
2023/06/21 19:07:17;;;;;;;;;6.67;6.67;;;;;29.10;43.20;53996.19;4895049;28;45633;-89
2023/06/21 19:09:43;;;;;;;;;7.33;6.33;;;;;29.35;43.44;53470.91;4877914;28;45571;-88
2023/06/21 19:12:08;;;;;;;;;4.67;4.67;;;;;28.99;43.77;53276.22;4889736;29;45407;-89
2023/06/21 19:14:34;;;;;;;;;5.00;5.00;;;;;28.87;43.83;53289.53;4896114;28;45553;-88
2023/06/21 19:16:59;;;;;;;;;4.00;4.00;;;;;29.10;43.60;53058.06;4883686;28;46873;-88
2023/06/21 19:19:24;;;;;;;;;5.00;5.00;;;;;28.65;43.26;53220.41;4884126;29;45726;-88
2023/06/21 19:21:50;;;;;;;;;2.33;2.33;;;;;28.82;43.01;53374.38;4896328;29;45773;-88
2023/06/21 19:24:15;;;;;;;;;4.33;3.67;;;;;29.19;43.72;53253.06;4960210;28;45706;-87
2023/06/21 19:26:42;;;;;;;;;5.00;5.00;;;;;28.49;43.83;53184.44;4895317;29;45526;-87
2023/06/21 19:29:08;;;;;;;;;4.00;4.00;;;;;28.42;43.74;52785.53;4894347;28;45647;-88
2023/06/21 19:31:33;;;;;;;;;1.00;1.00;;;;;28.52;44.17;52537.31;4891875;28;45577;-88
2023/06/21 19:33:58;;;;;;;;;3.00;3.00;;;;;29.00;44.03;52102.97;4889292;28;45460;-88
2023/06/21 19:36:24;;;;;;;;;2.25;2.25;;;;;29.01;44.43;51382.72;4897441;29;45625;-87
2023/06/21 19:38:49;;;;;;;;;2.67;2.67;;;;;28.96;44.98;51001.50;4890888;28;45502;-88
2023/06/21 19:41:14;;;;;;;;;5.33;4.33;;;;;29.05;44.43;50445.22;4894872;29;45581;-88
2023/06/21 19:43:40;;;;;;;;;2.33;2.00;;;;;28.91;44.75;50205.75;4891233;28;45484;-89
2023/06/21 19:46:07;;;;;;;;;3.00;3.00;;;;;28.35;45.10;49738.56;4888246;28;46509;-89
2023/06/21 19:48:32;;;;;;;;;3.00;3.00;;;;;28.29;45.22;49175.41;4892210;28;45691;-88
2023/06/21 19:50:57;;;;;;;;;4.00;3.00;;;;;28.80;45.15;48471.25;4912651;28;45611;-88
2023/06/21 19:53:23;;;;;;;;;4.00;3.00;;;;;28.72;45.58;47865.72;4893272;28;46942;-88
2023/06/21 19:55:48;;;;;;;;;3.00;3.00;;;;;28.12;46.08;46978.94;4887119;28;45472;-88
2023/06/21 19:58:14;;;;;;;;;1.67;1.67;;;;;28.48;45.87;46528.44;4893848;28;45465;-87
2023/06/21 20:00:41;;;;;;;;;3.00;2.00;;;;;28.33;46.35;45559.72;4896938;28;45453;-87
2023/06/21 20:03:06;;;;;;;;;4.67;4.00;;;;;28.27;46.37;44621.88;4882644;28;45481;-87
2023/06/21 20:05:32;;;;;;;;;3.00;3.00;;;;;27.84;46.69;43954.66;4896773;29;45817;-88
2023/06/21 20:07:57;;;;;;;;;3.67;3.67;;;;;28.23;46.54;42819.41;4896331;28;45469;-88
2023/06/21 20:10:22;;;;;;;;;6.00;4.00;;;;;28.02;47.19;42096.06;4887898;28;45436;-88
2023/06/21 20:12:48;;;;;;;;;3.00;3.00;;;;;27.92;47.47;40804.13;4896004;28;45521;-88
2023/06/21 20:15:13;;;;;;;;;5.33;5.00;;;;;28.05;47.96;39741.59;4901043;28;46557;-87
2023/06/21 20:17:38;;;;;;;;;4.00;3.00;;;;;27.74;47.65;38873.59;4896234;28;45526;-88
2023/06/21 20:20:09;;;;;;;;;5.00;3.33;;;;;27.55;47.38;38130.28;4897057;28;45486;-88
2023/06/21 20:22:34;;;;;;;;;1.50;1.50;;;;;27.79;47.88;36666.06;4892399;28;46712;-88
2023/06/21 20:25:00;;;;;;;;;5.00;3.50;;;;;27.77;48.14;35778.03;4895542;28;46342;-87
2023/06/21 20:27:26;;;;;;;;;2.50;2.50;;;;;27.92;48.29;34720.34;4892176;28;45917;-88
2023/06/21 20:29:51;;;;;;;;;3.25;3.00;;;;;27.94;48.31;34349.72;4896997;28;45887;-88
2023/06/21 20:32:17;;;;;;;;;4.00;4.00;;;;;27.79;48.41;33303.44;4904139;28;45685;-88
2023/06/21 20:34:42;;;;;;;;;2.75;2.75;;;;;27.98;48.59;32713.81;4894715;28;45656;-87
2023/06/21 20:37:07;;;;;;;;;3.00;3.00;;;;;27.98;48.64;32126.91;4888393;28;45968;-87
2023/06/21 20:39:33;;;;;;;;;3.75;3.00;;;;;27.92;48.82;31318.03;4896242;28;46246;-87
2023/06/21 20:42:01;;;;;;;;;3.00;3.00;;;;;28.06;48.63;30542.38;4896153;28;45458;-87
2023/06/21 20:44:29;;;;;;;;;4.00;3.00;;;;;28.03;49.11;29574.28;4890549;28;48017;-89
2023/06/21 20:46:56;;;;;;;;;4.33;2.33;;;;;27.83;49.00;28038.13;4878466;28;46361;-88
2023/06/21 20:49:24;;;;;;;;;4.00;2.75;;;;;27.95;49.32;26874.16;4893663;28;45699;-88
2023/06/21 20:51:49;;;;;;;;;4.00;4.00;;;;;27.86;49.56;25574.03;4893983;28;45519;-87
2023/06/21 20:54:15;;;;;;;;;3.00;3.00;;;;;27.65;49.61;24166.94;4885594;28;47953;-88
2023/06/21 20:56:42;;;;;;;;;3.00;3.00;;;;;27.81;49.92;22798.63;4892680;28;45612;-87
2023/06/21 20:59:08;;;;;;;;;3.00;3.00;;;;;27.78;50.11;21422.56;4896567;28;45874;-88
2023/06/21 21:01:40;;;;;;;;;4.00;4.00;;;;;27.42;50.41;20377.69;4896621;29;45483;-88
2023/06/21 21:04:06;;;;;;;;;3.25;3.25;;;;;26.94;50.31;19330.38;4895958;28;45668;-87
2023/06/21 21:06:32;;;;;;;;;4.00;4.00;;;;;27.30;50.48;18313.97;4896201;28;45549;-88